sensor_id;sensor_type;location;lat;lon;timestamp;P1;durP1;ratioP1;P2;durP2;ratioP2
60016;SDS011;45869;52.698;6.210;2023-03-24T00:00:44;9.85;;;3.72;;
60016;SDS011;45869;52.698;6.210;2023-03-24T00:03:10;9.75;;;3.70;;
60016;SDS011;45869;52.698;6.210;2023-03-24T00:05:36;8.93;;;3.63;;
60016;SDS011;45869;52.698;6.210;2023-03-24T00:08:02;9.10;;;3.47;;
60016;SDS011;45869;52.698;6.210;2023-03-24T00:10:32;8.07;;;3.55;;
60016;SDS011;45869;52.698;6.210;2023-03-24T00:12:59;7.60;;;3.22;;
60016;SDS011;45869;52.698;6.210;2023-03-24T00:15:25;8.13;;;2.95;;
60016;SDS011;45869;52.698;6.210;2023-03-24T00:18:01;9.02;;;3.30;;
60016;SDS011;45869;52.698;6.210;2023-03-24T00:20:28;6.45;;;3.08;;
60016;SDS011;45869;52.698;6.210;2023-03-24T00:22:54;7.63;;;2.90;;
60016;SDS011;45869;52.698;6.210;2023-03-24T00:25:23;6.00;;;2.90;;
60016;SDS011;45869;52.698;6.210;2023-03-24T00:27:52;7.80;;;3.00;;
60016;SDS011;45869;52.698;6.210;2023-03-24T00:30:19;6.80;;;3.00;;
60016;SDS011;45869;52.698;6.210;2023-03-24T00:32:45;7.25;;;3.13;;
60016;SDS011;45869;52.698;6.210;2023-03-24T00:35:13;6.88;;;3.05;;
60016;SDS011;45869;52.698;6.210;2023-03-24T00:37:40;7.68;;;2.80;;
60016;SDS011;45869;52.698;6.210;2023-03-24T00:40:10;7.10;;;2.55;;
60016;SDS011;45869;52.698;6.210;2023-03-24T00:42:37;6.45;;;2.50;;
60016;SDS011;45869;52.698;6.210;2023-03-24T00:45:04;6.63;;;2.67;;
60016;SDS011;45869;52.698;6.210;2023-03-24T00:47:30;5.03;;;2.72;;
60016;SDS011;45869;52.698;6.210;2023-03-24T00:50:01;6.82;;;2.78;;
60016;SDS011;45869;52.698;6.210;2023-03-24T00:52:27;8.70;;;3.03;;
60016;SDS011;45869;52.698;6.210;2023-03-24T00:54:58;6.00;;;3.20;;
60016;SDS011;45869;52.698;6.210;2023-03-24T00:57:25;8.02;;;3.08;;
60016;SDS011;45869;52.698;6.210;2023-03-24T00:59:54;7.15;;;3.00;;
60016;SDS011;45869;52.698;6.210;2023-03-24T01:02:21;7.10;;;2.75;;
60016;SDS011;45869;52.698;6.210;2023-03-24T01:04:56;7.72;;;2.60;;
60016;SDS011;45869;52.698;6.210;2023-03-24T01:09:48;6.28;;;2.50;;
60016;SDS011;45869;52.698;6.210;2023-03-24T01:12:28;7.13;;;3.00;;
60016;SDS011;45869;52.698;6.210;2023-03-24T01:14:54;6.80;;;2.65;;
60016;SDS011;45869;52.698;6.210;2023-03-24T01:17:23;5.88;;;2.72;;
60016;SDS011;45869;52.698;6.210;2023-03-24T01:19:52;6.85;;;2.60;;
60016;SDS011;45869;52.698;6.210;2023-03-24T01:22:19;4.57;;;2.55;;
60016;SDS011;45869;52.698;6.210;2023-03-24T01:24:45;5.95;;;2.80;;
60016;SDS011;45869;52.698;6.210;2023-03-24T01:27:12;5.70;;;2.70;;
60016;SDS011;45869;52.698;6.210;2023-03-24T01:29:38;6.80;;;2.65;;
60016;SDS011;45869;52.698;6.210;2023-03-24T01:32:04;7.32;;;2.75;;
60016;SDS011;45869;52.698;6.210;2023-03-24T01:34:31;4.55;;;2.50;;
60016;SDS011;45869;52.698;6.210;2023-03-24T01:36:57;6.22;;;2.33;;
60016;SDS011;45869;52.698;6.210;2023-03-24T01:39:26;4.82;;;2.40;;
60016;SDS011;45869;52.698;6.210;2023-03-24T01:41:53;6.90;;;2.58;;
60016;SDS011;45869;52.698;6.210;2023-03-24T01:44:23;6.30;;;2.78;;
60016;SDS011;45869;52.698;6.210;2023-03-24T01:46:50;3.50;;;2.20;;
60016;SDS011;45869;52.698;6.210;2023-03-24T01:49:16;5.53;;;2.72;;
60016;SDS011;45869;52.698;6.210;2023-03-24T01:51:43;5.05;;;2.60;;
60016;SDS011;45869;52.698;6.210;2023-03-24T01:54:20;4.88;;;2.70;;
60016;SDS011;45869;52.698;6.210;2023-03-24T01:56:51;3.75;;;2.40;;
60016;SDS011;45869;52.698;6.210;2023-03-24T01:59:22;5.53;;;2.47;;
60016;SDS011;45869;52.698;6.210;2023-03-24T02:01:49;5.40;;;2.40;;
60016;SDS011;45869;52.698;6.210;2023-03-24T02:04:16;6.38;;;2.55;;
60016;SDS011;45869;52.698;6.210;2023-03-24T02:06:43;6.82;;;2.65;;
60016;SDS011;45869;52.698;6.210;2023-03-24T02:09:13;5.07;;;2.38;;
60016;SDS011;45869;52.698;6.210;2023-03-24T02:11:39;5.85;;;2.83;;
60016;SDS011;45869;52.698;6.210;2023-03-24T02:14:06;5.63;;;2.47;;
60016;SDS011;45869;52.698;6.210;2023-03-24T02:16:51;4.22;;;2.28;;
60016;SDS011;45869;52.698;6.210;2023-03-24T02:30:08;6.55;;;2.50;;
60016;SDS011;45869;52.698;6.210;2023-03-24T02:32:52;4.72;;;2.30;;
60016;SDS011;45869;52.698;6.210;2023-03-24T02:35:29;4.88;;;2.10;;
60016;SDS011;45869;52.698;6.210;2023-03-24T02:40:35;9.70;;;2.90;;
60016;SDS011;45869;52.698;6.210;2023-03-24T02:45:59;5.22;;;2.78;;
60016;SDS011;45869;52.698;6.210;2023-03-24T02:48:31;6.80;;;2.60;;
60016;SDS011;45869;52.698;6.210;2023-03-24T02:53:46;3.83;;;2.33;;
60016;SDS011;45869;52.698;6.210;2023-03-24T02:58:41;5.18;;;2.38;;
60016;SDS011;45869;52.698;6.210;2023-03-24T03:01:17;5.18;;;2.50;;
60016;SDS011;45869;52.698;6.210;2023-03-24T03:03:47;4.85;;;2.42;;
60016;SDS011;45869;52.698;6.210;2023-03-24T03:06:19;4.47;;;2.60;;
60016;SDS011;45869;52.698;6.210;2023-03-24T03:08:46;6.90;;;2.80;;
60016;SDS011;45869;52.698;6.210;2023-03-24T03:11:13;4.75;;;2.42;;
60016;SDS011;45869;52.698;6.210;2023-03-24T03:13:46;4.10;;;2.45;;
60016;SDS011;45869;52.698;6.210;2023-03-24T03:16:15;2.90;;;2.20;;
60016;SDS011;45869;52.698;6.210;2023-03-24T03:18:50;4.60;;;2.55;;
60016;SDS011;45869;52.698;6.210;2023-03-24T03:23:46;4.93;;;2.50;;
60016;SDS011;45869;52.698;6.210;2023-03-24T03:26:13;5.55;;;2.50;;
60016;SDS011;45869;52.698;6.210;2023-03-24T03:28:41;4.43;;;2.30;;
60016;SDS011;45869;52.698;6.210;2023-03-24T03:31:15;3.75;;;2.13;;
60016;SDS011;45869;52.698;6.210;2023-03-24T03:33:44;4.18;;;2.00;;
60016;SDS011;45869;52.698;6.210;2023-03-24T03:41:11;3.25;;;1.17;;
60016;SDS011;45869;52.698;6.210;2023-03-24T03:43:39;3.88;;;1.40;;
60016;SDS011;45869;52.698;6.210;2023-03-24T03:46:07;5.07;;;1.33;;
60016;SDS011;45869;52.698;6.210;2023-03-24T03:48:33;4.88;;;1.10;;
60016;SDS011;45869;52.698;6.210;2023-03-24T03:51:00;6.65;;;1.38;;
60016;SDS011;45869;52.698;6.210;2023-03-24T03:53:29;4.88;;;1.17;;
60016;SDS011;45869;52.698;6.210;2023-03-24T03:55:56;7.55;;;1.48;;
60016;SDS011;45869;52.698;6.210;2023-03-24T03:58:22;6.85;;;1.58;;
60016;SDS011;45869;52.698;6.210;2023-03-24T04:00:48;7.50;;;1.83;;
60016;SDS011;45869;52.698;6.210;2023-03-24T04:05:58;6.68;;;1.35;;
60016;SDS011;45869;52.698;6.210;2023-03-24T04:11:14;6.07;;;1.40;;
60016;SDS011;45869;52.698;6.210;2023-03-24T04:16:13;6.70;;;0.90;;
60016;SDS011;45869;52.698;6.210;2023-03-24T04:26:29;5.78;;;1.65;;
60016;SDS011;45869;52.698;6.210;2023-03-24T04:29:19;5.65;;;1.35;;
60016;SDS011;45869;52.698;6.210;2023-03-24T04:32:00;10.38;;;1.80;;
60016;SDS011;45869;52.698;6.210;2023-03-24T04:34:37;11.68;;;1.80;;
60016;SDS011;45869;52.698;6.210;2023-03-24T04:37:13;9.77;;;2.08;;
60016;SDS011;45869;52.698;6.210;2023-03-24T04:39:40;9.65;;;2.15;;
60016;SDS011;45869;52.698;6.210;2023-03-24T04:42:16;10.45;;;2.00;;
60016;SDS011;45869;52.698;6.210;2023-03-24T04:44:43;11.27;;;2.47;;
60016;SDS011;45869;52.698;6.210;2023-03-24T04:47:10;10.57;;;2.10;;
60016;SDS011;45869;52.698;6.210;2023-03-24T04:49:37;7.97;;;1.67;;
60016;SDS011;45869;52.698;6.210;2023-03-24T04:52:04;13.32;;;2.15;;
60016;SDS011;45869;52.698;6.210;2023-03-24T04:54:33;11.52;;;1.80;;
60016;SDS011;45869;52.698;6.210;2023-03-24T04:57:02;7.68;;;1.92;;
60016;SDS011;45869;52.698;6.210;2023-03-24T04:59:30;11.35;;;2.00;;
60016;SDS011;45869;52.698;6.210;2023-03-24T05:01:58;9.23;;;1.67;;
60016;SDS011;45869;52.698;6.210;2023-03-24T05:04:26;9.07;;;1.63;;
60016;SDS011;45869;52.698;6.210;2023-03-24T05:06:52;6.13;;;1.77;;
60016;SDS011;45869;52.698;6.210;2023-03-24T05:09:20;6.07;;;1.42;;
60016;SDS011;45869;52.698;6.210;2023-03-24T05:11:47;11.65;;;1.77;;
60016;SDS011;45869;52.698;6.210;2023-03-24T05:14:13;8.75;;;1.55;;
60016;SDS011;45869;52.698;6.210;2023-03-24T05:16:39;8.55;;;1.92;;
60016;SDS011;45869;52.698;6.210;2023-03-24T05:19:05;7.50;;;1.40;;
60016;SDS011;45869;52.698;6.210;2023-03-24T05:21:31;6.72;;;1.50;;
60016;SDS011;45869;52.698;6.210;2023-03-24T05:23:58;8.40;;;1.33;;
60016;SDS011;45869;52.698;6.210;2023-03-24T05:26:27;10.52;;;1.90;;
60016;SDS011;45869;52.698;6.210;2023-03-24T05:28:53;8.52;;;1.60;;
60016;SDS011;45869;52.698;6.210;2023-03-24T05:31:19;7.60;;;1.63;;
60016;SDS011;45869;52.698;6.210;2023-03-24T05:33:45;6.07;;;1.15;;
60016;SDS011;45869;52.698;6.210;2023-03-24T05:36:12;7.93;;;1.20;;
60016;SDS011;45869;52.698;6.210;2023-03-24T05:38:38;5.80;;;1.60;;
60016;SDS011;45869;52.698;6.210;2023-03-24T05:41:04;7.88;;;1.88;;
60016;SDS011;45869;52.698;6.210;2023-03-24T05:43:31;7.28;;;1.65;;
60016;SDS011;45869;52.698;6.210;2023-03-24T05:45:57;7.80;;;1.75;;
60016;SDS011;45869;52.698;6.210;2023-03-24T05:48:26;7.95;;;1.60;;
60016;SDS011;45869;52.698;6.210;2023-03-24T05:50:52;8.98;;;1.90;;
60016;SDS011;45869;52.698;6.210;2023-03-24T05:53:18;6.95;;;1.52;;
60016;SDS011;45869;52.698;6.210;2023-03-24T05:55:45;6.10;;;1.40;;
60016;SDS011;45869;52.698;6.210;2023-03-24T05:58:11;8.23;;;1.70;;
60016;SDS011;45869;52.698;6.210;2023-03-24T06:00:37;9.18;;;1.60;;
60016;SDS011;45869;52.698;6.210;2023-03-24T06:03:03;8.95;;;1.58;;
60016;SDS011;45869;52.698;6.210;2023-03-24T06:05:30;11.70;;;1.73;;
60016;SDS011;45869;52.698;6.210;2023-03-24T06:07:57;8.82;;;1.77;;
60016;SDS011;45869;52.698;6.210;2023-03-24T06:10:26;7.03;;;1.70;;
60016;SDS011;45869;52.698;6.210;2023-03-24T06:12:53;8.13;;;2.08;;
60016;SDS011;45869;52.698;6.210;2023-03-24T06:15:20;9.55;;;2.13;;
60016;SDS011;45869;52.698;6.210;2023-03-24T06:17:51;8.93;;;2.22;;
60016;SDS011;45869;52.698;6.210;2023-03-24T06:20:19;9.10;;;2.05;;
60016;SDS011;45869;52.698;6.210;2023-03-24T06:22:45;9.35;;;1.88;;
60016;SDS011;45869;52.698;6.210;2023-03-24T06:25:12;10.82;;;2.15;;
60016;SDS011;45869;52.698;6.210;2023-03-24T06:27:41;12.80;;;2.55;;
60016;SDS011;45869;52.698;6.210;2023-03-24T06:30:10;13.23;;;2.88;;
60016;SDS011;45869;52.698;6.210;2023-03-24T06:32:36;9.40;;;2.17;;
60016;SDS011;45869;52.698;6.210;2023-03-24T06:35:02;10.70;;;2.22;;
60016;SDS011;45869;52.698;6.210;2023-03-24T06:37:28;9.13;;;2.33;;
60016;SDS011;45869;52.698;6.210;2023-03-24T06:39:55;11.23;;;2.08;;
60016;SDS011;45869;52.698;6.210;2023-03-24T06:42:21;12.93;;;2.90;;
60016;SDS011;45869;52.698;6.210;2023-03-24T06:44:47;15.82;;;2.70;;
60016;SDS011;45869;52.698;6.210;2023-03-24T06:47:15;13.68;;;2.40;;
60016;SDS011;45869;52.698;6.210;2023-03-24T06:49:44;9.07;;;1.90;;
60016;SDS011;45869;52.698;6.210;2023-03-24T06:52:13;15.60;;;2.55;;
60016;SDS011;45869;52.698;6.210;2023-03-24T06:54:39;14.35;;;2.38;;
60016;SDS011;45869;52.698;6.210;2023-03-24T06:57:05;12.98;;;2.40;;
60016;SDS011;45869;52.698;6.210;2023-03-24T06:59:31;8.80;;;2.10;;
60016;SDS011;45869;52.698;6.210;2023-03-24T07:02:02;13.27;;;2.40;;
60016;SDS011;45869;52.698;6.210;2023-03-24T07:04:28;17.55;;;2.90;;
60016;SDS011;45869;52.698;6.210;2023-03-24T07:07:00;12.98;;;3.15;;
60016;SDS011;45869;52.698;6.210;2023-03-24T07:09:26;16.25;;;2.88;;
60016;SDS011;45869;52.698;6.210;2023-03-24T07:11:55;14.25;;;2.90;;
60016;SDS011;45869;52.698;6.210;2023-03-24T07:14:21;20.25;;;3.28;;
60016;SDS011;45869;52.698;6.210;2023-03-24T07:16:50;16.65;;;3.28;;
60016;SDS011;45869;52.698;6.210;2023-03-24T07:19:16;18.83;;;3.03;;
60016;SDS011;45869;52.698;6.210;2023-03-24T07:21:42;16.95;;;3.15;;
60016;SDS011;45869;52.698;6.210;2023-03-24T07:24:16;20.08;;;3.40;;
60016;SDS011;45869;52.698;6.210;2023-03-24T07:26:48;14.93;;;2.55;;
60016;SDS011;45869;52.698;6.210;2023-03-24T07:29:14;19.10;;;3.85;;
60016;SDS011;45869;52.698;6.210;2023-03-24T07:31:41;21.65;;;3.97;;
60016;SDS011;45869;52.698;6.210;2023-03-24T07:34:07;15.73;;;3.47;;
60016;SDS011;45869;52.698;6.210;2023-03-24T07:36:33;21.27;;;3.60;;
60016;SDS011;45869;52.698;6.210;2023-03-24T07:38:59;19.23;;;3.28;;
60016;SDS011;45869;52.698;6.210;2023-03-24T07:41:25;15.75;;;3.38;;
60016;SDS011;45869;52.698;6.210;2023-03-24T07:43:53;14.13;;;3.17;;
60016;SDS011;45869;52.698;6.210;2023-03-24T07:46:19;15.13;;;3.17;;
60016;SDS011;45869;52.698;6.210;2023-03-24T07:48:45;16.05;;;2.90;;
60016;SDS011;45869;52.698;6.210;2023-03-24T07:51:11;15.00;;;3.13;;
60016;SDS011;45869;52.698;6.210;2023-03-24T07:53:37;20.33;;;3.42;;
60016;SDS011;45869;52.698;6.210;2023-03-24T07:56:03;17.10;;;3.58;;
60016;SDS011;45869;52.698;6.210;2023-03-24T07:58:30;15.32;;;3.70;;
60016;SDS011;45869;52.698;6.210;2023-03-24T08:00:56;18.65;;;3.42;;
60016;SDS011;45869;52.698;6.210;2023-03-24T08:03:25;19.70;;;3.83;;
60016;SDS011;45869;52.698;6.210;2023-03-24T08:05:52;20.58;;;3.95;;
60016;SDS011;45869;52.698;6.210;2023-03-24T08:08:19;16.00;;;3.00;;
60016;SDS011;45869;52.698;6.210;2023-03-24T08:10:46;15.93;;;3.17;;
60016;SDS011;45869;52.698;6.210;2023-03-24T08:13:14;16.10;;;2.90;;
60016;SDS011;45869;52.698;6.210;2023-03-24T08:15:40;15.57;;;2.85;;
60016;SDS011;45869;52.698;6.210;2023-03-24T08:18:09;14.60;;;3.10;;
60016;SDS011;45869;52.698;6.210;2023-03-24T08:20:35;12.85;;;2.85;;
60016;SDS011;45869;52.698;6.210;2023-03-24T08:23:01;15.23;;;3.00;;
60016;SDS011;45869;52.698;6.210;2023-03-24T08:25:28;14.63;;;2.90;;
60016;SDS011;45869;52.698;6.210;2023-03-24T08:27:55;12.98;;;2.90;;
60016;SDS011;45869;52.698;6.210;2023-03-24T08:30:21;16.70;;;3.05;;
60016;SDS011;45869;52.698;6.210;2023-03-24T08:32:51;17.75;;;3.10;;
60016;SDS011;45869;52.698;6.210;2023-03-24T08:35:19;13.45;;;3.08;;
60016;SDS011;45869;52.698;6.210;2023-03-24T08:37:49;15.35;;;3.20;;
60016;SDS011;45869;52.698;6.210;2023-03-24T08:40:16;17.92;;;3.95;;
60016;SDS011;45869;52.698;6.210;2023-03-24T08:42:46;19.52;;;2.90;;
60016;SDS011;45869;52.698;6.210;2023-03-24T08:45:13;18.25;;;3.05;;
60016;SDS011;45869;52.698;6.210;2023-03-24T08:47:43;16.70;;;2.60;;
60016;SDS011;45869;52.698;6.210;2023-03-24T08:50:12;19.98;;;3.28;;
60016;SDS011;45869;52.698;6.210;2023-03-24T08:52:41;15.38;;;3.10;;
60016;SDS011;45869;52.698;6.210;2023-03-24T09:03:44;11.25;;;2.97;;
60016;SDS011;45869;52.698;6.210;2023-03-24T09:12:59;15.27;;;2.78;;
60016;SDS011;45869;52.698;6.210;2023-03-24T09:15:44;11.45;;;2.60;;
60016;SDS011;45869;52.698;6.210;2023-03-24T09:19:00;13.38;;;3.15;;
60016;SDS011;45869;52.698;6.210;2023-03-24T09:21:31;13.50;;;2.55;;
60016;SDS011;45869;52.698;6.210;2023-03-24T09:24:20;11.38;;;2.42;;
60016;SDS011;45869;52.698;6.210;2023-03-24T09:26:52;14.10;;;2.50;;
60016;SDS011;45869;52.698;6.210;2023-03-24T09:29:18;18.83;;;2.90;;
60016;SDS011;45869;52.698;6.210;2023-03-24T09:31:47;14.40;;;2.72;;
60016;SDS011;45869;52.698;6.210;2023-03-24T09:34:23;17.08;;;2.75;;
60016;SDS011;45869;52.698;6.210;2023-03-24T09:36:50;13.52;;;2.40;;
60016;SDS011;45869;52.698;6.210;2023-03-24T09:39:16;11.80;;;2.15;;
60016;SDS011;45869;52.698;6.210;2023-03-24T09:41:43;17.67;;;2.58;;
60016;SDS011;45869;52.698;6.210;2023-03-24T09:44:27;16.00;;;2.97;;
60016;SDS011;45869;52.698;6.210;2023-03-24T09:46:56;15.68;;;2.55;;
60016;SDS011;45869;52.698;6.210;2023-03-24T09:49:28;11.43;;;2.33;;
60016;SDS011;45869;52.698;6.210;2023-03-24T09:52:02;11.85;;;2.10;;
60016;SDS011;45869;52.698;6.210;2023-03-24T09:56:55;12.02;;;1.88;;
60016;SDS011;45869;52.698;6.210;2023-03-24T09:59:28;9.80;;;1.70;;
60016;SDS011;45869;52.698;6.210;2023-03-24T10:02:09;15.50;;;2.72;;
60016;SDS011;45869;52.698;6.210;2023-03-24T10:04:38;13.73;;;2.22;;
60016;SDS011;45869;52.698;6.210;2023-03-24T10:09:37;10.38;;;2.30;;
60016;SDS011;45869;52.698;6.210;2023-03-24T10:30:46;10.85;;;2.10;;
60016;SDS011;45869;52.698;6.210;2023-03-24T10:33:13;13.43;;;2.70;;
60016;SDS011;45869;52.698;6.210;2023-03-24T10:35:45;15.57;;;2.60;;
60016;SDS011;45869;52.698;6.210;2023-03-24T10:38:22;11.98;;;2.60;;
60016;SDS011;45869;52.698;6.210;2023-03-24T10:40:48;12.10;;;2.03;;
60016;SDS011;45869;52.698;6.210;2023-03-24T10:43:16;11.20;;;2.05;;
60016;SDS011;45869;52.698;6.210;2023-03-24T10:45:48;11.63;;;2.00;;
60016;SDS011;45869;52.698;6.210;2023-03-24T10:51:06;10.02;;;2.08;;
60016;SDS011;45869;52.698;6.210;2023-03-24T10:53:32;13.48;;;2.80;;
60016;SDS011;45869;52.698;6.210;2023-03-24T10:55:58;10.30;;;1.90;;
60016;SDS011;45869;52.698;6.210;2023-03-24T10:58:40;10.80;;;1.75;;
60016;SDS011;45869;52.698;6.210;2023-03-24T11:01:26;10.57;;;2.03;;
60016;SDS011;45869;52.698;6.210;2023-03-24T11:03:58;12.55;;;2.50;;
60016;SDS011;45869;52.698;6.210;2023-03-24T11:11:52;9.65;;;1.88;;
60016;SDS011;45869;52.698;6.210;2023-03-24T11:14:25;11.00;;;2.20;;
60016;SDS011;45869;52.698;6.210;2023-03-24T11:16:53;10.50;;;2.03;;
60016;SDS011;45869;52.698;6.210;2023-03-24T11:19:26;10.70;;;2.00;;
60016;SDS011;45869;52.698;6.210;2023-03-24T11:22:00;11.85;;;1.92;;
60016;SDS011;45869;52.698;6.210;2023-03-24T11:24:27;12.38;;;2.13;;
60016;SDS011;45869;52.698;6.210;2023-03-24T11:26:58;10.20;;;1.90;;
60016;SDS011;45869;52.698;6.210;2023-03-24T11:29:26;7.72;;;1.77;;
60016;SDS011;45869;52.698;6.210;2023-03-24T11:31:56;11.85;;;1.85;;
60016;SDS011;45869;52.698;6.210;2023-03-24T11:34:29;8.82;;;1.80;;
60016;SDS011;45869;52.698;6.210;2023-03-24T11:39:42;12.25;;;1.85;;
60016;SDS011;45869;52.698;6.210;2023-03-24T11:47:15;9.05;;;1.92;;
60016;SDS011;45869;52.698;6.210;2023-03-24T11:52:37;7.38;;;1.60;;
60016;SDS011;45869;52.698;6.210;2023-03-24T11:55:15;9.82;;;1.70;;
60016;SDS011;45869;52.698;6.210;2023-03-24T11:57:52;8.48;;;1.92;;
60016;SDS011;45869;52.698;6.210;2023-03-24T12:00:22;10.30;;;1.70;;
60016;SDS011;45869;52.698;6.210;2023-03-24T12:07:57;10.65;;;1.95;;
60016;SDS011;45869;52.698;6.210;2023-03-24T12:10:37;9.27;;;1.80;;
60016;SDS011;45869;52.698;6.210;2023-03-24T12:13:11;9.25;;;1.80;;
60016;SDS011;45869;52.698;6.210;2023-03-24T12:23:33;12.48;;;2.53;;
60016;SDS011;45869;52.698;6.210;2023-03-24T12:26:10;12.57;;;2.42;;
60016;SDS011;45869;52.698;6.210;2023-03-24T12:28:44;10.32;;;1.92;;
60016;SDS011;45869;52.698;6.210;2023-03-24T12:41:33;12.63;;;2.05;;
60016;SDS011;45869;52.698;6.210;2023-03-24T12:49:40;12.10;;;2.72;;
60016;SDS011;45869;52.698;6.210;2023-03-24T12:57:49;11.23;;;1.83;;
60016;SDS011;45869;52.698;6.210;2023-03-24T13:02:47;14.13;;;1.90;;
60016;SDS011;45869;52.698;6.210;2023-03-24T13:05:32;10.43;;;2.17;;
60016;SDS011;45869;52.698;6.210;2023-03-24T13:08:04;9.13;;;1.73;;
60016;SDS011;45869;52.698;6.210;2023-03-24T13:10:37;8.82;;;1.90;;
60016;SDS011;45869;52.698;6.210;2023-03-24T13:13:24;7.95;;;1.90;;
60016;SDS011;45869;52.698;6.210;2023-03-24T13:15:57;9.70;;;1.60;;
60016;SDS011;45869;52.698;6.210;2023-03-24T13:21:05;9.52;;;1.80;;
60016;SDS011;45869;52.698;6.210;2023-03-24T13:28:44;13.75;;;2.03;;
60016;SDS011;45869;52.698;6.210;2023-03-24T13:31:11;10.95;;;2.08;;
60016;SDS011;45869;52.698;6.210;2023-03-24T13:33:38;13.85;;;2.15;;
60016;SDS011;45869;52.698;6.210;2023-03-24T13:36:08;8.77;;;1.48;;
60016;SDS011;45869;52.698;6.210;2023-03-24T13:38:39;9.57;;;1.45;;
60016;SDS011;45869;52.698;6.210;2023-03-24T13:41:10;11.88;;;2.00;;
60016;SDS011;45869;52.698;6.210;2023-03-24T13:43:45;8.70;;;1.67;;
60016;SDS011;45869;52.698;6.210;2023-03-24T13:46:12;11.32;;;2.03;;
60016;SDS011;45869;52.698;6.210;2023-03-24T13:48:42;12.50;;;2.00;;
60016;SDS011;45869;52.698;6.210;2023-03-24T13:51:14;7.63;;;1.75;;
60016;SDS011;45869;52.698;6.210;2023-03-24T13:53:45;10.23;;;1.80;;
60016;SDS011;45869;52.698;6.210;2023-03-24T13:59:07;9.07;;;1.48;;
60016;SDS011;45869;52.698;6.210;2023-03-24T14:06:49;12.48;;;1.90;;
60016;SDS011;45869;52.698;6.210;2023-03-24T14:09:26;9.52;;;1.55;;
60016;SDS011;45869;52.698;6.210;2023-03-24T14:14:29;12.18;;;1.58;;
60016;SDS011;45869;52.698;6.210;2023-03-24T14:22:12;5.85;;;1.20;;
60016;SDS011;45869;52.698;6.210;2023-03-24T14:24:39;8.88;;;1.42;;
60016;SDS011;45869;52.698;6.210;2023-03-24T14:27:22;7.38;;;1.33;;
60016;SDS011;45869;52.698;6.210;2023-03-24T14:32:39;6.15;;;1.10;;
60016;SDS011;45869;52.698;6.210;2023-03-24T14:35:17;9.18;;;1.30;;
60016;SDS011;45869;52.698;6.210;2023-03-24T14:37:49;7.68;;;1.20;;
60016;SDS011;45869;52.698;6.210;2023-03-24T14:40:27;8.38;;;1.10;;
60016;SDS011;45869;52.698;6.210;2023-03-24T14:43:03;7.75;;;1.10;;
60016;SDS011;45869;52.698;6.210;2023-03-24T14:45:51;9.45;;;1.25;;
60016;SDS011;45869;52.698;6.210;2023-03-24T14:48:37;10.95;;;1.63;;
60016;SDS011;45869;52.698;6.210;2023-03-24T14:51:12;7.30;;;0.88;;
60016;SDS011;45869;52.698;6.210;2023-03-24T14:53:41;7.63;;;1.02;;
60016;SDS011;45869;52.698;6.210;2023-03-24T14:56:10;9.75;;;1.30;;
60016;SDS011;45869;52.698;6.210;2023-03-24T14:58:38;10.90;;;1.55;;
60016;SDS011;45869;52.698;6.210;2023-03-24T15:01:10;6.32;;;1.00;;
60016;SDS011;45869;52.698;6.210;2023-03-24T15:06:22;7.95;;;1.33;;
60016;SDS011;45869;52.698;6.210;2023-03-24T15:08:52;9.38;;;1.40;;
60016;SDS011;45869;52.698;6.210;2023-03-24T15:11:26;8.80;;;1.30;;
60016;SDS011;45869;52.698;6.210;2023-03-24T15:13:55;7.32;;;1.40;;
60016;SDS011;45869;52.698;6.210;2023-03-24T15:16:24;7.50;;;1.35;;
60016;SDS011;45869;52.698;6.210;2023-03-24T15:21:27;8.55;;;1.20;;
60016;SDS011;45869;52.698;6.210;2023-03-24T15:23:54;8.95;;;1.50;;
60016;SDS011;45869;52.698;6.210;2023-03-24T15:26:21;8.70;;;1.42;;
60016;SDS011;45869;52.698;6.210;2023-03-24T15:28:54;9.40;;;1.35;;
60016;SDS011;45869;52.698;6.210;2023-03-24T15:31:21;9.73;;;1.50;;
60016;SDS011;45869;52.698;6.210;2023-03-24T15:33:49;10.48;;;1.40;;
60016;SDS011;45869;52.698;6.210;2023-03-24T15:36:15;9.30;;;1.40;;
60016;SDS011;45869;52.698;6.210;2023-03-24T15:38:45;11.00;;;1.75;;
60016;SDS011;45869;52.698;6.210;2023-03-24T15:41:15;10.82;;;1.77;;
60016;SDS011;45869;52.698;6.210;2023-03-24T15:43:43;7.80;;;1.55;;
60016;SDS011;45869;52.698;6.210;2023-03-24T15:46:30;9.15;;;1.40;;
60016;SDS011;45869;52.698;6.210;2023-03-24T15:48:56;6.55;;;1.00;;
60016;SDS011;45869;52.698;6.210;2023-03-24T16:02:14;5.10;;;1.10;;
60016;SDS011;45869;52.698;6.210;2023-03-24T16:07:20;5.38;;;0.77;;
60016;SDS011;45869;52.698;6.210;2023-03-24T16:09:56;5.78;;;1.05;;
60016;SDS011;45869;52.698;6.210;2023-03-24T16:12:28;5.47;;;0.65;;
60016;SDS011;45869;52.698;6.210;2023-03-24T16:14:54;6.85;;;0.70;;
60016;SDS011;45869;52.698;6.210;2023-03-24T16:20:19;7.25;;;0.70;;
60016;SDS011;45869;52.698;6.210;2023-03-24T16:22:48;6.80;;;0.80;;
60016;SDS011;45869;52.698;6.210;2023-03-24T16:25:14;4.72;;;0.82;;
60016;SDS011;45869;52.698;6.210;2023-03-24T16:27:40;3.25;;;0.68;;
60016;SDS011;45869;52.698;6.210;2023-03-24T16:30:24;4.53;;;0.60;;
60016;SDS011;45869;52.698;6.210;2023-03-24T16:32:51;5.07;;;0.77;;
60016;SDS011;45869;52.698;6.210;2023-03-24T16:35:17;6.22;;;0.80;;
60016;SDS011;45869;52.698;6.210;2023-03-24T16:37:43;5.07;;;0.90;;
60016;SDS011;45869;52.698;6.210;2023-03-24T16:40:20;7.30;;;1.10;;
60016;SDS011;45869;52.698;6.210;2023-03-24T16:42:46;6.70;;;0.80;;
60016;SDS011;45869;52.698;6.210;2023-03-24T16:45:12;5.85;;;0.90;;
60016;SDS011;45869;52.698;6.210;2023-03-24T16:47:38;4.78;;;1.08;;
60016;SDS011;45869;52.698;6.210;2023-03-24T16:52:46;8.43;;;1.52;;
60016;SDS011;45869;52.698;6.210;2023-03-24T16:55:12;5.22;;;1.00;;
60016;SDS011;45869;52.698;6.210;2023-03-24T16:57:38;6.43;;;1.00;;
60016;SDS011;45869;52.698;6.210;2023-03-24T17:00:04;5.03;;;0.80;;
60016;SDS011;45869;52.698;6.210;2023-03-24T17:02:35;5.95;;;1.17;;
60016;SDS011;45869;52.698;6.210;2023-03-24T17:05:28;9.05;;;1.25;;
60016;SDS011;45869;52.698;6.210;2023-03-24T17:07:55;6.40;;;0.85;;
60016;SDS011;45869;52.698;6.210;2023-03-24T17:10:22;7.97;;;1.30;;
60016;SDS011;45869;52.698;6.210;2023-03-24T17:12:52;4.85;;;0.98;;
60016;SDS011;45869;52.698;6.210;2023-03-24T17:15:28;7.35;;;1.02;;
60016;SDS011;45869;52.698;6.210;2023-03-24T17:17:54;8.38;;;1.35;;
60016;SDS011;45869;52.698;6.210;2023-03-24T17:20:24;8.98;;;1.00;;
60016;SDS011;45869;52.698;6.210;2023-03-24T17:22:52;7.55;;;1.00;;
60016;SDS011;45869;52.698;6.210;2023-03-24T17:25:19;6.72;;;1.10;;
60016;SDS011;45869;52.698;6.210;2023-03-24T17:27:53;9.48;;;1.48;;
60016;SDS011;45869;52.698;6.210;2023-03-24T17:30:23;6.28;;;1.33;;
60016;SDS011;45869;52.698;6.210;2023-03-24T17:32:49;9.95;;;1.30;;
60016;SDS011;45869;52.698;6.210;2023-03-24T17:35:20;7.47;;;1.35;;
60016;SDS011;45869;52.698;6.210;2023-03-24T17:37:46;7.45;;;1.27;;
60016;SDS011;45869;52.698;6.210;2023-03-24T17:40:16;6.65;;;1.10;;
60016;SDS011;45869;52.698;6.210;2023-03-24T17:42:42;7.38;;;0.93;;
60016;SDS011;45869;52.698;6.210;2023-03-24T17:45:10;9.70;;;1.42;;
60016;SDS011;45869;52.698;6.210;2023-03-24T17:47:36;7.38;;;1.60;;
60016;SDS011;45869;52.698;6.210;2023-03-24T17:50:06;10.05;;;1.70;;
60016;SDS011;45869;52.698;6.210;2023-03-24T17:52:37;8.60;;;1.55;;
60016;SDS011;45869;52.698;6.210;2023-03-24T17:55:03;6.85;;;1.45;;
60016;SDS011;45869;52.698;6.210;2023-03-24T17:57:33;6.47;;;1.58;;
60016;SDS011;45869;52.698;6.210;2023-03-24T17:59:59;7.45;;;1.58;;
60016;SDS011;45869;52.698;6.210;2023-03-24T18:02:25;8.65;;;1.30;;
60016;SDS011;45869;52.698;6.210;2023-03-24T18:04:51;6.38;;;1.58;;
60016;SDS011;45869;52.698;6.210;2023-03-24T18:07:18;9.27;;;1.55;;
60016;SDS011;45869;52.698;6.210;2023-03-24T18:09:44;8.55;;;1.23;;